Погода Альтаграсия Нортена неделю

Манагуа, Никарагуа

24 февраля-01 марта
  • 24февраля
    Сегодня
    +19°
    +35°
    Ясно и безоблачно
    ВремяПогодаТемператураВлажностьДавлениеВетер, м/сВероятность осадков
    00:00Ясно и безоблачно+23°C65 %755 мм3.1 м/с2 %
    03:00Ясно и безоблачно+21°C78 %755 мм1.9 м/с2 %
    06:00Ясно и безоблачно+20°C76 %756 мм1.4 м/с2 %
    09:00Ясно и безоблачно+27°C55 %757 мм4.3 м/с2 %
    12:00Ясно и безоблачно+32°C38 %756 мм5.5 м/с2 %
    15:00Ясно и безоблачно+34°C25 %754 мм6.5 м/с2 %
    18:00Ясно и безоблачно+29°C47 %754 мм4.2 м/с2 %
    21:00Ясно и безоблачно+27°C47 %756 мм4.6 м/с2 %
  • 25февраля
    Воскресенье
    +20°
    +34°
    Ясно и безоблачно
    ВремяПогодаТемператураВлажностьДавлениеВетер, м/сВероятность осадков
    00:00Ясно и безоблачно+24°C76 %757 мм4.4 м/с2 %
    03:00Ясно и безоблачно+22°C77 %756 мм3.1 м/с6 %
    06:00Ясно и безоблачно+20°C77 %758 мм2.0 м/с2 %
    09:00Ясно и безоблачно+27°C55 %759 мм4.8 м/с2 %
    12:00Ясно и безоблачно+32°C33 %757 мм7.0 м/с2 %
    15:00Ясно и безоблачно+33°C27 %754 мм7.5 м/с2 %
    18:00Ясно и безоблачно+30°C37 %755 мм5.9 м/с2 %
    21:00Ясно и безоблачно+26°C44 %757 мм4.5 м/с2 %
  • 26февраля
    Понедельник
    +21°
    +34°
    Облачно с прояснениями
    ВремяПогодаТемператураВлажностьДавлениеВетер, м/сВероятность осадков
    00:00Ясно и безоблачно+24°C53 %757 мм4.1 м/с2 %
    03:00Ясно и безоблачно+22°C66 %756 мм2.6 м/с2 %
    06:00Ясно и безоблачно+21°C72 %757 мм2.3 м/с2 %
    09:00Ясно и безоблачно+27°C55 %758 мм5.0 м/с2 %
    12:00Практически безоблачно+33°C35 %756 мм6.7 м/с2 %
    15:00Облачно с прояснениями+34°C38 %753 мм6.8 м/с2 %
    18:00Ясно и безоблачно+30°C58 %754 мм4.7 м/с2 %
    21:00Небольшая облачность+27°C59 %755 мм4.4 м/с2 %
  • 27февраля
    Вторник
    +22°
    +35°
    Облачно с прояснениями
    ВремяПогодаТемператураВлажностьДавлениеВетер, м/сВероятность осадков
    00:00Ясно и безоблачно+25°C67 %755 мм4.6 м/с2 %
    03:00Ясно и безоблачно+23°C74 %754 мм3.2 м/с2 %
    06:00Ясно и безоблачно+22°C76 %755 мм2.7 м/с2 %
    09:00Ясно и безоблачно+28°C59 %757 мм4.9 м/с2 %
    12:00Облачно с прояснениями+33°C37 %755 мм6.9 м/с5 %
    15:00Облачно с прояснениями+34°C33 %752 мм7.5 м/с3 %
    18:00Практически безоблачно+31°C45 %753 мм5.4 м/с3 %
    21:00Ясно и безоблачно+27°C59 %754 мм4.8 м/с2 %
Мы используем cookies
Соглашаюсь